createdAt,value
2019-05-12T00:01:18.802Z,10.32
2019-05-12T00:03:53.341Z,10.45
2019-05-12T00:06:28.422Z,12.73
2019-05-12T00:09:02.734Z,9.83
2019-05-12T00:11:37.885Z,11.43
2019-05-12T00:14:12.054Z,10.15
2019-05-12T00:16:46.056Z,10.80
2019-05-12T00:19:19.857Z,9.33
2019-05-12T00:21:53.849Z,14.23
2019-05-12T00:24:28.057Z,9.65
2019-05-12T00:27:04.948Z,9.65
2019-05-12T00:29:38.829Z,11.28
2019-05-12T00:32:13.131Z,9.48
2019-05-12T00:34:48.058Z,10.60
2019-05-12T00:37:22.949Z,9.00
2019-05-12T00:39:59.275Z,7.97
2019-05-12T00:42:33.811Z,10.15
2019-05-12T00:45:08.714Z,11.63
2019-05-12T00:47:43.828Z,9.68
2019-05-12T00:50:20.657Z,10.80
2019-05-12T00:52:57.999Z,10.72
2019-05-12T00:55:38.871Z,12.58
2019-05-12T00:58:31.676Z,9.78
2019-05-12T01:01:25.510Z,10.18
2019-05-12T01:04:12.649Z,9.68
2019-05-12T01:07:05.683Z,14.98
2019-05-12T01:10:13.397Z,10.63
2019-05-12T01:18:18.175Z,8.65
2019-05-12T01:21:03.495Z,10.88
2019-05-12T01:24:38.381Z,12.43
2019-05-12T01:28:48.758Z,9.25
2019-05-12T01:39:33.536Z,11.28
2019-05-12T01:43:08.841Z,8.93
2019-05-12T01:46:28.778Z,10.00
2019-05-12T01:50:28.469Z,6.50
2019-05-12T01:53:14.021Z,6.40
2019-05-12T01:55:54.983Z,7.22
2019-05-12T01:58:39.519Z,10.53
2019-05-12T02:02:31.228Z,9.78
2019-05-12T02:06:15.054Z,7.15
2019-05-12T02:12:14.187Z,7.97
2019-05-12T02:14:53.564Z,13.08
2019-05-12T02:17:28.308Z,11.35
2019-05-12T02:20:03.332Z,8.18
2019-05-12T02:22:38.913Z,11.45
2019-05-12T02:25:13.001Z,9.08
2019-05-12T02:59:06.651Z,9.90
2019-05-12T03:09:30.172Z,10.18
2019-05-12T03:12:44.710Z,9.63
2019-05-12T03:23:39.384Z,6.72
2019-05-12T03:26:24.623Z,11.00
2019-05-12T03:29:05.703Z,11.90
2019-05-12T03:31:48.623Z,13.25
2019-05-12T04:30:08.477Z,33.55
2019-05-12T04:32:45.218Z,17.48
2019-05-12T04:35:19.315Z,16.25
2019-05-12T04:37:55.350Z,10.32
2019-05-12T04:40:49.228Z,10.13
2019-05-12T04:47:45.999Z,7.40
2019-05-12T04:50:24.541Z,7.67
2019-05-12T04:53:18.825Z,8.80
2019-05-12T04:56:07.433Z,10.72
2019-05-12T04:58:34.874Z,7.90
2019-05-12T05:01:17.892Z,9.03
2019-05-12T05:03:56.608Z,8.45
2019-05-12T05:06:35.723Z,9.40
2019-05-12T05:09:14.418Z,9.43
2019-05-12T05:11:48.338Z,6.25
2019-05-12T05:14:24.910Z,7.60
2019-05-12T05:17:00.999Z,6.37
2019-05-12T05:19:36.403Z,7.37
2019-05-12T05:22:47.581Z,7.92
2019-05-12T05:26:04.395Z,7.40
2019-05-12T05:38:51.059Z,10.48
2019-05-12T05:41:29.449Z,8.73
2019-05-12T06:32:11.273Z,5.70
2019-05-12T06:34:46.087Z,7.58
2019-05-12T06:37:57.352Z,8.45
2019-05-12T06:40:46.316Z,7.05
2019-05-12T06:43:33.598Z,9.73
2019-05-12T06:46:11.793Z,7.53
2019-05-12T06:49:10.258Z,11.20
2019-05-12T06:52:00.774Z,20.00
2019-05-12T06:54:34.455Z,9.03
2019-05-12T06:57:22.109Z,7.72
2019-05-12T07:00:08.766Z,8.60
2019-05-12T07:02:55.128Z,12.80
2019-05-12T07:05:50.386Z,12.28
2019-05-12T07:08:32.806Z,80.32
2019-05-12T07:11:07.700Z,23.45
2019-05-12T07:13:46.648Z,41.28
2019-05-12T07:16:29.515Z,10.03
2019-05-12T07:19:29.701Z,8.78
2019-05-12T07:50:58.442Z,9.75
2019-05-12T07:53:30.195Z,8.10
2019-05-12T07:56:07.190Z,11.63
2019-05-12T07:58:47.458Z,9.23
2019-05-12T08:01:18.418Z,12.88
2019-05-12T08:03:57.337Z,13.58
2019-05-12T08:06:34.615Z,12.93
2019-05-12T08:09:13.450Z,14.33
2019-05-12T08:12:19.066Z,10.88
2019-05-12T08:15:15.839Z,11.80
2019-05-12T08:17:59.679Z,8.38
2019-05-12T08:21:07.300Z,8.13
2019-05-12T08:23:48.619Z,6.42
2019-05-12T08:40:10.203Z,11.93
2019-05-12T08:54:11.029Z,11.20
2019-05-12T09:13:43.225Z,8.50
2019-05-12T09:46:03.799Z,11.48
2019-05-12T09:55:17.892Z,8.73
2019-05-12T10:07:19.465Z,14.20
2019-05-12T10:09:55.132Z,10.58
2019-05-12T10:12:36.601Z,11.63
2019-05-12T10:15:06.889Z,10.08
2019-05-12T10:17:40.543Z,12.78
2019-05-12T10:20:15.204Z,13.35
2019-05-12T10:22:49.761Z,12.60
2019-05-12T10:25:28.504Z,11.38
2019-05-12T10:28:02.991Z,12.05
2019-05-12T10:30:34.405Z,9.80
2019-05-12T10:33:07.940Z,11.78
2019-05-12T10:35:43.667Z,9.73
2019-05-12T10:38:16.407Z,11.60
2019-05-12T10:40:51.122Z,10.45
2019-05-12T10:43:24.936Z,11.03
2019-05-12T10:46:07.215Z,10.13
2019-05-12T10:51:53.981Z,10.00
2019-05-12T10:54:28.696Z,11.97
2019-05-12T10:57:05.053Z,10.93
2019-05-12T10:59:43.397Z,7.42
2019-05-12T11:02:14.003Z,7.28
2019-05-12T11:04:49.067Z,6.90
2019-05-12T11:07:28.005Z,4.72
2019-05-12T11:10:05.594Z,8.38
2019-05-12T11:12:36.388Z,6.33
2019-05-12T11:27:34.399Z,9.70
2019-05-12T11:45:44.202Z,7.55
2019-05-12T11:48:46.323Z,6.55
2019-05-12T11:58:33.508Z,5.97
2019-05-12T12:01:17.879Z,7.20
2019-05-12T12:03:54.502Z,13.05
2019-05-12T12:06:33.166Z,14.60
2019-05-12T12:09:15.494Z,8.10
2019-05-12T12:11:45.189Z,8.35
2019-05-12T12:14:20.045Z,17.80
2019-05-12T12:16:54.459Z,7.05
2019-05-12T12:19:37.830Z,7.67
2019-05-12T12:22:05.228Z,5.28
2019-05-12T12:36:04.253Z,11.57
2019-05-12T12:38:38.266Z,9.58
2019-05-12T12:41:13.186Z,8.33
2019-05-12T12:43:47.137Z,9.28
2019-05-12T12:46:24.697Z,8.13
2019-05-12T12:49:00.163Z,9.15
2019-05-12T12:51:34.340Z,8.40
2019-05-12T12:54:08.264Z,9.65
2019-05-12T12:56:43.110Z,9.25
2019-05-12T12:59:17.109Z,10.70
2019-05-12T13:01:51.128Z,23.32
2019-05-12T13:04:24.903Z,79.70
2019-05-12T13:06:58.672Z,21.60
2019-05-12T13:09:33.514Z,25.68
2019-05-12T13:12:14.307Z,15.00
2019-05-12T13:14:44.319Z,11.55
2019-05-12T13:17:20.034Z,9.78
2019-05-12T13:19:58.553Z,10.80
2019-05-12T13:22:29.799Z,10.68
2019-05-12T13:25:08.593Z,8.40
2019-05-12T13:27:40.479Z,8.53
2019-05-12T13:30:21.144Z,7.95
2019-05-12T13:32:55.857Z,8.90
2019-05-12T13:35:43.564Z,8.30
2019-05-12T13:38:17.033Z,9.15
2019-05-12T13:40:50.535Z,11.63
2019-05-12T13:43:25.938Z,11.57
2019-05-12T13:45:59.488Z,14.28
2019-05-12T13:48:34.032Z,9.98
2019-05-12T13:51:13.195Z,11.53
2019-05-12T13:53:53.784Z,12.07
2019-05-12T13:56:32.808Z,7.08
2019-05-12T14:11:38.938Z,66.72
2019-05-12T14:30:24.387Z,10.75
2019-05-12T14:33:18.450Z,9.65
2019-05-12T15:09:36.345Z,8.93
2019-05-12T15:16:40.421Z,8.63
2019-05-12T15:23:32.336Z,8.43
2019-05-12T15:26:29.646Z,11.20
2019-05-12T15:29:56.373Z,14.98
2019-05-12T15:36:07.507Z,12.47
2019-05-12T15:38:43.715Z,15.32
2019-05-12T15:42:09.183Z,10.65
2019-05-12T15:53:35.847Z,16.93
2019-05-12T15:56:14.989Z,9.83
2019-05-12T15:58:45.551Z,9.90
2019-05-12T16:01:21.316Z,23.95
2019-05-12T16:14:25.126Z,18.40
2019-05-12T16:17:27.142Z,30.90
2019-05-12T16:20:00.712Z,31.52
2019-05-12T16:22:36.835Z,33.63
2019-05-12T16:25:10.865Z,35.28
2019-05-12T16:27:45.274Z,30.97
2019-05-12T16:30:20.272Z,30.60
2019-05-12T16:32:55.021Z,15.83
2019-05-12T16:35:31.746Z,11.50
2019-05-12T16:38:06.012Z,18.98
2019-05-12T16:40:45.566Z,22.00
2019-05-12T16:43:16.550Z,16.02
2019-05-12T16:45:50.309Z,13.93
2019-05-12T16:48:33.071Z,19.80
2019-05-12T16:51:03.163Z,15.58
2019-05-12T16:53:36.819Z,17.95
2019-05-12T16:56:10.690Z,15.78
2019-05-12T16:58:44.638Z,23.50
2019-05-12T17:01:19.381Z,24.07
2019-05-12T17:03:54.712Z,14.43
2019-05-12T17:06:33.880Z,13.25
2019-05-12T17:09:05.030Z,17.62
2019-05-12T17:11:47.309Z,15.20
2019-05-12T17:14:13.825Z,11.85
2019-05-12T17:16:48.964Z,12.82
2019-05-12T17:19:23.658Z,12.90
2019-05-12T17:21:59.403Z,9.75
2019-05-12T17:24:34.253Z,12.58
2019-05-12T17:27:09.141Z,13.78
2019-05-12T17:29:43.497Z,18.77
2019-05-12T17:32:16.806Z,15.70
2019-05-12T17:34:50.215Z,16.75
2019-05-12T17:37:23.930Z,16.37
2019-05-12T17:39:57.300Z,22.10
2019-05-12T17:42:33.290Z,19.17
2019-05-12T17:45:09.397Z,26.00
2019-05-12T17:47:41.279Z,35.08
2019-05-12T17:50:14.959Z,54.27
2019-05-12T17:52:50.362Z,93.42
2019-05-12T17:55:23.312Z,85.95
2019-05-12T17:57:57.906Z,81.67
2019-05-12T18:00:33.548Z,78.10
2019-05-12T18:03:18.143Z,57.53
2019-05-12T18:05:47.548Z,75.95
2019-05-12T18:08:17.513Z,58.83
2019-05-12T18:10:54.284Z,40.12
2019-05-12T18:13:28.178Z,33.80
2019-05-12T18:16:05.580Z,28.20
2019-05-12T18:18:43.400Z,24.07
2019-05-12T18:21:22.116Z,24.37
2019-05-12T18:23:53.664Z,26.07
2019-05-12T18:26:27.367Z,42.00
2019-05-12T18:29:03.881Z,58.10
2019-05-12T18:31:36.697Z,56.10
2019-05-12T18:34:10.422Z,48.48
2019-05-12T18:36:49.024Z,33.00
2019-05-12T18:39:19.836Z,35.45
2019-05-12T18:41:54.605Z,40.88
2019-05-12T18:44:31.734Z,56.98
2019-05-12T18:47:07.925Z,81.55
2019-05-12T18:49:47.811Z,78.65
2019-05-12T18:52:23.770Z,77.35
2019-05-12T18:54:58.006Z,101.10
2019-05-12T18:57:39.016Z,81.67
2019-05-12T19:00:19.450Z,74.27
2019-05-12T19:02:54.617Z,55.10
2019-05-12T19:05:30.967Z,41.45
2019-05-12T19:08:04.815Z,32.08
2019-05-12T19:10:45.990Z,30.50
2019-05-12T19:13:14.645Z,29.07
2019-05-12T19:15:52.616Z,28.07
2019-05-12T19:18:32.345Z,36.53
2019-05-12T19:21:01.271Z,40.70
2019-05-12T19:23:37.618Z,41.65
2019-05-12T19:26:13.549Z,51.95
2019-05-12T19:28:52.823Z,44.65
2019-05-12T19:31:24.767Z,41.53
2019-05-12T19:34:15.724Z,36.42
2019-05-12T19:36:45.012Z,31.42
2019-05-12T19:39:11.843Z,33.28
2019-05-12T19:41:46.053Z,22.90
2019-05-12T19:44:19.904Z,22.50
2019-05-12T19:46:54.632Z,20.75
2019-05-12T19:49:28.387Z,23.73
2019-05-12T19:52:03.652Z,24.25
2019-05-12T19:54:38.131Z,23.05
2019-05-12T19:57:15.599Z,30.00
2019-05-12T19:59:50.969Z,30.27
2019-05-12T20:02:23.687Z,31.50
2019-05-12T20:04:57.181Z,25.48
2019-05-12T20:07:33.726Z,33.95
2019-05-12T20:10:06.641Z,44.65
2019-05-12T20:12:40.072Z,43.75
2019-05-12T20:15:15.019Z,43.68
2019-05-12T20:17:48.921Z,38.98
2019-05-12T20:20:28.850Z,45.03
2019-05-12T20:22:57.493Z,61.08
2019-05-12T20:25:31.002Z,44.53
2019-05-12T20:28:11.020Z,57.83
2019-05-12T20:30:39.436Z,44.70
2019-05-12T20:33:13.774Z,27.82
2019-05-12T20:35:49.201Z,29.90
2019-05-12T20:38:25.486Z,29.48
2019-05-12T20:40:58.119Z,47.53
2019-05-12T20:43:37.179Z,43.95
2019-05-12T20:46:06.585Z,44.60
2019-05-12T20:48:40.019Z,42.20
2019-05-12T20:51:15.310Z,41.65
2019-05-12T20:53:48.570Z,38.35
2019-05-12T20:56:24.720Z,53.33
2019-05-12T20:58:58.315Z,57.58
2019-05-12T21:01:33.610Z,51.23
2019-05-12T21:04:07.885Z,56.60
2019-05-12T21:06:43.141Z,47.23
2019-05-12T21:09:16.672Z,41.40
2019-05-12T21:11:50.173Z,34.75
2019-05-12T21:14:24.091Z,29.98
2019-05-12T21:16:57.615Z,26.82
2019-05-12T21:19:37.946Z,27.55
2019-05-12T21:22:06.157Z,21.70
2019-05-12T21:24:39.600Z,18.77
2019-05-12T21:27:15.731Z,17.35
2019-05-12T21:29:48.166Z,18.45
2019-05-12T21:32:24.034Z,21.52
2019-05-12T21:34:57.906Z,20.95
2019-05-12T21:37:37.045Z,20.25
2019-05-12T21:40:08.637Z,19.15
2019-05-12T21:42:44.320Z,28.02
2019-05-12T21:45:23.778Z,23.47
2019-05-12T21:47:56.304Z,18.42
2019-05-12T21:50:32.693Z,21.30
2019-05-12T21:53:04.332Z,17.92
2019-05-12T21:55:37.935Z,18.70
2019-05-12T21:58:12.904Z,16.02
2019-05-12T22:00:59.564Z,17.00
2019-05-12T22:03:27.939Z,15.03
2019-05-12T22:06:06.466Z,16.93
2019-05-12T22:08:36.473Z,14.75
2019-05-12T22:11:11.750Z,12.93
2019-05-12T22:13:54.873Z,9.78
2019-05-12T22:16:20.577Z,12.68
2019-05-12T22:18:59.045Z,10.18
2019-05-12T22:21:29.450Z,10.32
2019-05-12T22:24:06.181Z,11.50
2019-05-12T22:26:40.371Z,14.47
2019-05-12T22:29:13.977Z,10.90
2019-05-12T22:31:48.298Z,11.20
2019-05-12T22:34:27.365Z,10.85
2019-05-12T22:36:59.243Z,9.00
2019-05-12T22:39:33.896Z,14.13
2019-05-12T22:42:11.629Z,10.08
2019-05-12T22:44:43.754Z,10.25
2019-05-12T22:47:17.963Z,10.13
2019-05-12T22:49:55.330Z,9.85
2019-05-12T22:52:26.577Z,9.58
2019-05-12T22:55:00.034Z,13.08
2019-05-12T22:57:38.300Z,12.18
2019-05-12T23:00:13.523Z,9.05
2019-05-12T23:02:46.596Z,10.43
2019-05-12T23:05:20.704Z,12.93
2019-05-12T23:07:54.537Z,10.45
2019-05-12T23:10:28.223Z,10.10
2019-05-12T23:13:04.746Z,9.30
2019-05-12T23:15:42.286Z,8.35
2019-05-12T23:18:12.254Z,9.93
2019-05-12T23:20:45.724Z,10.58
2019-05-12T23:23:19.160Z,12.90
2019-05-12T23:26:00.194Z,8.73
2019-05-12T23:28:27.960Z,8.60
2019-05-12T23:31:01.491Z,7.55
2019-05-12T23:33:36.605Z,8.58
2019-05-12T23:36:15.834Z,9.13
2019-05-12T23:38:51.996Z,9.10
2019-05-12T23:41:23.796Z,6.95
2019-05-12T23:43:57.326Z,8.05
2019-05-12T23:46:30.821Z,11.00
2019-05-12T23:49:04.323Z,9.50
2019-05-12T23:51:37.853Z,9.13
2019-05-12T23:54:11.293Z,9.83
2019-05-12T23:56:44.810Z,6.62
2019-05-12T23:59:18.301Z,7.53
